sensor_id;sensor_type;location;lat;lon;timestamp;P1;durP1;ratioP1;P2;durP2;ratioP2
32186;SDS011;18686;53.084;8.872;2023-12-29T00:00:05;8.70;;;1.65;;
32186;SDS011;18686;53.084;8.872;2023-12-29T00:02:37;12.60;;;1.80;;
32186;SDS011;18686;53.084;8.872;2023-12-29T00:05:06;8.20;;;1.80;;
32186;SDS011;18686;53.084;8.872;2023-12-29T00:07:35;10.50;;;1.83;;
32186;SDS011;18686;53.084;8.872;2023-12-29T00:10:03;9.68;;;1.58;;
32186;SDS011;18686;53.084;8.872;2023-12-29T00:12:33;11.13;;;1.70;;
32186;SDS011;18686;53.084;8.872;2023-12-29T00:15:01;10.00;;;1.63;;
32186;SDS011;18686;53.084;8.872;2023-12-29T00:17:30;8.43;;;1.50;;
32186;SDS011;18686;53.084;8.872;2023-12-29T00:20:00;7.10;;;1.63;;
32186;SDS011;18686;53.084;8.872;2023-12-29T00:22:28;14.45;;;2.05;;
32186;SDS011;18686;53.084;8.872;2023-12-29T00:24:56;10.68;;;1.73;;
32186;SDS011;18686;53.084;8.872;2023-12-29T00:27:25;7.35;;;1.60;;
32186;SDS011;18686;53.084;8.872;2023-12-29T00:29:53;9.48;;;2.25;;
32186;SDS011;18686;53.084;8.872;2023-12-29T00:32:22;13.68;;;1.90;;
32186;SDS011;18686;53.084;8.872;2023-12-29T00:34:52;8.80;;;1.75;;
32186;SDS011;18686;53.084;8.872;2023-12-29T00:37:22;7.82;;;1.70;;
32186;SDS011;18686;53.084;8.872;2023-12-29T00:39:53;8.80;;;1.38;;
32186;SDS011;18686;53.084;8.872;2023-12-29T00:42:21;10.85;;;2.05;;
32186;SDS011;18686;53.084;8.872;2023-12-29T00:44:50;5.80;;;1.60;;
32186;SDS011;18686;53.084;8.872;2023-12-29T00:47:18;8.80;;;1.60;;
32186;SDS011;18686;53.084;8.872;2023-12-29T00:49:47;10.27;;;1.65;;
32186;SDS011;18686;53.084;8.872;2023-12-29T00:52:15;9.25;;;1.90;;
32186;SDS011;18686;53.084;8.872;2023-12-29T00:54:46;9.13;;;1.13;;
32186;SDS011;18686;53.084;8.872;2023-12-29T00:57:15;9.20;;;1.88;;
32186;SDS011;18686;53.084;8.872;2023-12-29T00:59:46;8.45;;;1.38;;
32186;SDS011;18686;53.084;8.872;2023-12-29T01:02:16;7.82;;;1.50;;
32186;SDS011;18686;53.084;8.872;2023-12-29T01:04:44;7.65;;;1.70;;
32186;SDS011;18686;53.084;8.872;2023-12-29T01:07:12;7.30;;;1.73;;
32186;SDS011;18686;53.084;8.872;2023-12-29T01:09:41;12.10;;;1.75;;
32186;SDS011;18686;53.084;8.872;2023-12-29T01:12:11;7.13;;;1.52;;
32186;SDS011;18686;53.084;8.872;2023-12-29T01:14:41;6.32;;;1.35;;
32186;SDS011;18686;53.084;8.872;2023-12-29T01:17:09;6.93;;;1.42;;
32186;SDS011;18686;53.084;8.872;2023-12-29T01:19:37;5.40;;;1.52;;
32186;SDS011;18686;53.084;8.872;2023-12-29T01:22:06;6.00;;;1.60;;
32186;SDS011;18686;53.084;8.872;2023-12-29T01:24:35;7.38;;;1.25;;
32186;SDS011;18686;53.084;8.872;2023-12-29T01:27:13;10.13;;;1.63;;
32186;SDS011;18686;53.084;8.872;2023-12-29T01:29:41;4.85;;;1.33;;
32186;SDS011;18686;53.084;8.872;2023-12-29T01:32:09;10.50;;;1.50;;
32186;SDS011;18686;53.084;8.872;2023-12-29T01:34:38;6.95;;;2.03;;
32186;SDS011;18686;53.084;8.872;2023-12-29T01:37:06;8.40;;;1.52;;
32186;SDS011;18686;53.084;8.872;2023-12-29T01:39:36;11.25;;;1.92;;
32186;SDS011;18686;53.084;8.872;2023-12-29T01:42:06;7.97;;;1.40;;
32186;SDS011;18686;53.084;8.872;2023-12-29T01:44:35;8.00;;;1.83;;
32186;SDS011;18686;53.084;8.872;2023-12-29T01:47:05;8.68;;;1.98;;
32186;SDS011;18686;53.084;8.872;2023-12-29T01:49:42;13.18;;;2.30;;
32186;SDS011;18686;53.084;8.872;2023-12-29T01:52:13;7.90;;;1.63;;
32186;SDS011;18686;53.084;8.872;2023-12-29T01:54:44;11.60;;;1.50;;
32186;SDS011;18686;53.084;8.872;2023-12-29T01:57:15;7.00;;;1.50;;
32186;SDS011;18686;53.084;8.872;2023-12-29T01:59:45;11.35;;;2.40;;
32186;SDS011;18686;53.084;8.872;2023-12-29T02:02:15;6.15;;;1.42;;
32186;SDS011;18686;53.084;8.872;2023-12-29T02:04:44;11.30;;;1.70;;
32186;SDS011;18686;53.084;8.872;2023-12-29T02:07:12;8.32;;;1.75;;
32186;SDS011;18686;53.084;8.872;2023-12-29T02:09:42;9.93;;;2.00;;
32186;SDS011;18686;53.084;8.872;2023-12-29T02:12:12;7.18;;;2.00;;
32186;SDS011;18686;53.084;8.872;2023-12-29T02:14:40;11.38;;;2.08;;
32186;SDS011;18686;53.084;8.872;2023-12-29T02:17:10;11.25;;;2.20;;
32186;SDS011;18686;53.084;8.872;2023-12-29T02:19:49;18.38;;;2.78;;
32186;SDS011;18686;53.084;8.872;2023-12-29T02:22:17;12.70;;;2.20;;
32186;SDS011;18686;53.084;8.872;2023-12-29T02:24:47;11.38;;;2.22;;
32186;SDS011;18686;53.084;8.872;2023-12-29T02:27:18;14.13;;;2.88;;
32186;SDS011;18686;53.084;8.872;2023-12-29T02:29:56;22.15;;;3.55;;
32186;SDS011;18686;53.084;8.872;2023-12-29T02:32:32;13.40;;;2.75;;
32186;SDS011;18686;53.084;8.872;2023-12-29T02:35:05;15.80;;;3.47;;
32186;SDS011;18686;53.084;8.872;2023-12-29T02:37:35;20.83;;;3.60;;
32186;SDS011;18686;53.084;8.872;2023-12-29T02:40:06;16.55;;;3.40;;
32186;SDS011;18686;53.084;8.872;2023-12-29T02:42:35;22.05;;;4.00;;
32186;SDS011;18686;53.084;8.872;2023-12-29T02:45:04;17.83;;;3.58;;
32186;SDS011;18686;53.084;8.872;2023-12-29T02:47:32;27.05;;;3.75;;
32186;SDS011;18686;53.084;8.872;2023-12-29T02:50:01;25.58;;;4.43;;
32186;SDS011;18686;53.084;8.872;2023-12-29T02:52:29;19.13;;;3.90;;
32186;SDS011;18686;53.084;8.872;2023-12-29T02:54:57;17.90;;;4.18;;
32186;SDS011;18686;53.084;8.872;2023-12-29T02:57:27;23.75;;;4.65;;
32186;SDS011;18686;53.084;8.872;2023-12-29T02:59:56;19.83;;;4.82;;
32186;SDS011;18686;53.084;8.872;2023-12-29T03:02:24;18.23;;;4.65;;
32186;SDS011;18686;53.084;8.872;2023-12-29T03:04:52;23.27;;;4.65;;
32186;SDS011;18686;53.084;8.872;2023-12-29T03:07:21;28.15;;;5.20;;
32186;SDS011;18686;53.084;8.872;2023-12-29T03:09:50;23.20;;;4.78;;
32186;SDS011;18686;53.084;8.872;2023-12-29T03:12:18;29.08;;;4.80;;
32186;SDS011;18686;53.084;8.872;2023-12-29T03:14:48;18.02;;;4.13;;
32186;SDS011;18686;53.084;8.872;2023-12-29T03:17:16;25.20;;;5.22;;
32186;SDS011;18686;53.084;8.872;2023-12-29T03:19:44;23.60;;;4.80;;
32186;SDS011;18686;53.084;8.872;2023-12-29T03:22:13;32.17;;;5.30;;
32186;SDS011;18686;53.084;8.872;2023-12-29T03:24:41;26.83;;;5.00;;
32186;SDS011;18686;53.084;8.872;2023-12-29T03:27:10;24.35;;;5.40;;
32186;SDS011;18686;53.084;8.872;2023-12-29T03:29:38;21.55;;;5.72;;
32186;SDS011;18686;53.084;8.872;2023-12-29T03:32:08;31.42;;;6.25;;
32186;SDS011;18686;53.084;8.872;2023-12-29T03:34:37;26.58;;;6.25;;
32186;SDS011;18686;53.084;8.872;2023-12-29T03:37:05;23.30;;;5.40;;
32186;SDS011;18686;53.084;8.872;2023-12-29T03:39:33;19.63;;;5.88;;
32186;SDS011;18686;53.084;8.872;2023-12-29T03:42:03;27.90;;;5.95;;
32186;SDS011;18686;53.084;8.872;2023-12-29T03:44:32;26.23;;;6.93;;
32186;SDS011;18686;53.084;8.872;2023-12-29T03:47:00;24.40;;;6.03;;
32186;SDS011;18686;53.084;8.872;2023-12-29T03:49:30;23.63;;;5.63;;
32186;SDS011;18686;53.084;8.872;2023-12-29T03:51:58;23.17;;;5.40;;
32186;SDS011;18686;53.084;8.872;2023-12-29T03:54:26;19.95;;;4.93;;
32186;SDS011;18686;53.084;8.872;2023-12-29T03:56:55;12.30;;;2.22;;
32186;SDS011;18686;53.084;8.872;2023-12-29T03:59:23;15.23;;;1.95;;
32186;SDS011;18686;53.084;8.872;2023-12-29T04:01:51;10.85;;;1.83;;
32186;SDS011;18686;53.084;8.872;2023-12-29T04:04:19;19.63;;;2.47;;
32186;SDS011;18686;53.084;8.872;2023-12-29T04:06:49;15.35;;;2.10;;
32186;SDS011;18686;53.084;8.872;2023-12-29T04:09:17;11.48;;;2.17;;
32186;SDS011;18686;53.084;8.872;2023-12-29T04:11:49;9.98;;;1.98;;
32186;SDS011;18686;53.084;8.872;2023-12-29T04:14:18;13.15;;;2.17;;
32186;SDS011;18686;53.084;8.872;2023-12-29T04:16:46;15.48;;;3.08;;
32186;SDS011;18686;53.084;8.872;2023-12-29T04:19:14;16.55;;;3.50;;
32186;SDS011;18686;53.084;8.872;2023-12-29T04:21:42;16.58;;;3.25;;
32186;SDS011;18686;53.084;8.872;2023-12-29T04:24:13;13.18;;;2.28;;
32186;SDS011;18686;53.084;8.872;2023-12-29T04:26:41;21.67;;;2.15;;
32186;SDS011;18686;53.084;8.872;2023-12-29T04:29:11;13.75;;;2.10;;
32186;SDS011;18686;53.084;8.872;2023-12-29T04:31:39;14.48;;;2.17;;
32186;SDS011;18686;53.084;8.872;2023-12-29T04:34:12;17.27;;;2.25;;
32186;SDS011;18686;53.084;8.872;2023-12-29T04:36:40;21.80;;;2.63;;
32186;SDS011;18686;53.084;8.872;2023-12-29T04:39:09;17.45;;;2.22;;
32186;SDS011;18686;53.084;8.872;2023-12-29T04:41:39;24.88;;;3.05;;
32186;SDS011;18686;53.084;8.872;2023-12-29T04:44:07;14.13;;;3.00;;
32186;SDS011;18686;53.084;8.872;2023-12-29T04:46:35;19.90;;;3.03;;
32186;SDS011;18686;53.084;8.872;2023-12-29T04:49:03;17.85;;;3.67;;
32186;SDS011;18686;53.084;8.872;2023-12-29T04:51:31;17.00;;;3.97;;
32186;SDS011;18686;53.084;8.872;2023-12-29T04:54:00;21.38;;;5.35;;
32186;SDS011;18686;53.084;8.872;2023-12-29T04:56:28;27.15;;;6.72;;
32186;SDS011;18686;53.084;8.872;2023-12-29T04:58:58;27.25;;;8.23;;
32186;SDS011;18686;53.084;8.872;2023-12-29T05:01:26;27.65;;;8.77;;
32186;SDS011;18686;53.084;8.872;2023-12-29T05:03:54;30.67;;;8.95;;
32186;SDS011;18686;53.084;8.872;2023-12-29T05:06:23;33.58;;;8.93;;
32186;SDS011;18686;53.084;8.872;2023-12-29T05:08:51;33.30;;;9.40;;
32186;SDS011;18686;53.084;8.872;2023-12-29T05:11:19;34.05;;;9.98;;
32186;SDS011;18686;53.084;8.872;2023-12-29T05:13:48;35.30;;;9.23;;
32186;SDS011;18686;53.084;8.872;2023-12-29T05:16:17;30.10;;;8.60;;
32186;SDS011;18686;53.084;8.872;2023-12-29T05:18:45;33.08;;;9.45;;
32186;SDS011;18686;53.084;8.872;2023-12-29T05:21:15;26.60;;;8.30;;
32186;SDS011;18686;53.084;8.872;2023-12-29T05:23:44;35.75;;;9.13;;
32186;SDS011;18686;53.084;8.872;2023-12-29T05:26:14;30.08;;;8.38;;
32186;SDS011;18686;53.084;8.872;2023-12-29T05:28:42;27.55;;;7.43;;
32186;SDS011;18686;53.084;8.872;2023-12-29T05:31:10;37.92;;;7.50;;
32186;SDS011;18686;53.084;8.872;2023-12-29T05:33:41;42.55;;;8.80;;
32186;SDS011;18686;53.084;8.872;2023-12-29T05:36:10;31.58;;;8.20;;
32186;SDS011;18686;53.084;8.872;2023-12-29T05:38:39;27.70;;;7.95;;
32186;SDS011;18686;53.084;8.872;2023-12-29T05:41:07;31.83;;;7.65;;
32186;SDS011;18686;53.084;8.872;2023-12-29T05:43:40;35.90;;;8.63;;
32186;SDS011;18686;53.084;8.872;2023-12-29T05:46:09;27.20;;;7.65;;
32186;SDS011;18686;53.084;8.872;2023-12-29T05:48:38;43.40;;;8.63;;
32186;SDS011;18686;53.084;8.872;2023-12-29T05:51:08;39.38;;;7.82;;
32186;SDS011;18686;53.084;8.872;2023-12-29T05:53:39;24.25;;;7.20;;
32186;SDS011;18686;53.084;8.872;2023-12-29T05:56:07;33.33;;;7.07;;
32186;SDS011;18686;53.084;8.872;2023-12-29T05:58:36;32.95;;;7.28;;
32186;SDS011;18686;53.084;8.872;2023-12-29T06:01:04;29.02;;;7.30;;
32186;SDS011;18686;53.084;8.872;2023-12-29T06:03:33;38.78;;;7.80;;
32186;SDS011;18686;53.084;8.872;2023-12-29T06:06:03;34.65;;;8.25;;
32186;SDS011;18686;53.084;8.872;2023-12-29T06:08:32;41.50;;;9.13;;
32186;SDS011;18686;53.084;8.872;2023-12-29T06:11:00;47.67;;;9.13;;
32186;SDS011;18686;53.084;8.872;2023-12-29T06:13:30;41.75;;;8.07;;
32186;SDS011;18686;53.084;8.872;2023-12-29T06:15:58;32.38;;;6.38;;
32186;SDS011;18686;53.084;8.872;2023-12-29T06:18:27;35.20;;;7.60;;
32186;SDS011;18686;53.084;8.872;2023-12-29T06:20:55;30.88;;;8.02;;
32186;SDS011;18686;53.084;8.872;2023-12-29T06:23:25;36.05;;;8.00;;
32186;SDS011;18686;53.084;8.872;2023-12-29T06:25:53;42.88;;;8.70;;
32186;SDS011;18686;53.084;8.872;2023-12-29T06:28:22;41.30;;;8.70;;
32186;SDS011;18686;53.084;8.872;2023-12-29T06:30:50;39.45;;;7.00;;
32186;SDS011;18686;53.084;8.872;2023-12-29T06:33:18;43.95;;;7.68;;
32186;SDS011;18686;53.084;8.872;2023-12-29T06:35:49;45.42;;;7.32;;
32186;SDS011;18686;53.084;8.872;2023-12-29T06:38:18;39.05;;;7.35;;
32186;SDS011;18686;53.084;8.872;2023-12-29T06:40:47;33.20;;;6.65;;
32186;SDS011;18686;53.084;8.872;2023-12-29T06:43:16;36.00;;;6.68;;
32186;SDS011;18686;53.084;8.872;2023-12-29T06:45:44;30.90;;;5.35;;
32186;SDS011;18686;53.084;8.872;2023-12-29T06:48:12;40.63;;;5.70;;
32186;SDS011;18686;53.084;8.872;2023-12-29T06:50:41;42.28;;;6.28;;
32186;SDS011;18686;53.084;8.872;2023-12-29T06:53:10;38.67;;;5.70;;
32186;SDS011;18686;53.084;8.872;2023-12-29T06:55:38;35.00;;;5.75;;
32186;SDS011;18686;53.084;8.872;2023-12-29T06:58:08;35.75;;;5.43;;
32186;SDS011;18686;53.084;8.872;2023-12-29T07:00:37;42.47;;;5.05;;
32186;SDS011;18686;53.084;8.872;2023-12-29T07:03:07;42.47;;;6.18;;
32186;SDS011;18686;53.084;8.872;2023-12-29T07:05:36;36.00;;;4.85;;
32186;SDS011;18686;53.084;8.872;2023-12-29T07:08:04;31.10;;;5.00;;
32186;SDS011;18686;53.084;8.872;2023-12-29T07:10:33;33.38;;;5.70;;
32186;SDS011;18686;53.084;8.872;2023-12-29T07:13:01;34.22;;;4.93;;
32186;SDS011;18686;53.084;8.872;2023-12-29T07:15:31;32.15;;;4.72;;
32186;SDS011;18686;53.084;8.872;2023-12-29T07:18:00;38.90;;;7.00;;
32186;SDS011;18686;53.084;8.872;2023-12-29T07:20:28;42.38;;;5.45;;
32186;SDS011;18686;53.084;8.872;2023-12-29T07:22:57;31.42;;;4.28;;
32186;SDS011;18686;53.084;8.872;2023-12-29T07:25:25;38.40;;;6.05;;
32186;SDS011;18686;53.084;8.872;2023-12-29T07:27:54;51.88;;;5.88;;
32186;SDS011;18686;53.084;8.872;2023-12-29T07:30:23;23.05;;;5.22;;
32186;SDS011;18686;53.084;8.872;2023-12-29T07:32:54;41.03;;;5.68;;
32186;SDS011;18686;53.084;8.872;2023-12-29T07:35:22;37.72;;;5.65;;
32186;SDS011;18686;53.084;8.872;2023-12-29T07:37:51;38.55;;;5.50;;
32186;SDS011;18686;53.084;8.872;2023-12-29T07:40:19;36.22;;;5.63;;
32186;SDS011;18686;53.084;8.872;2023-12-29T07:42:49;62.67;;;6.95;;
32186;SDS011;18686;53.084;8.872;2023-12-29T07:45:17;30.98;;;5.43;;
32186;SDS011;18686;53.084;8.872;2023-12-29T07:47:46;53.60;;;8.40;;
32186;SDS011;18686;53.084;8.872;2023-12-29T07:50:16;37.35;;;5.38;;
32186;SDS011;18686;53.084;8.872;2023-12-29T07:52:45;31.48;;;5.47;;
32186;SDS011;18686;53.084;8.872;2023-12-29T07:55:13;37.55;;;5.55;;
32186;SDS011;18686;53.084;8.872;2023-12-29T07:57:43;32.50;;;4.50;;
32186;SDS011;18686;53.084;8.872;2023-12-29T08:00:14;28.17;;;4.90;;
32186;SDS011;18686;53.084;8.872;2023-12-29T08:02:42;37.28;;;5.35;;
32186;SDS011;18686;53.084;8.872;2023-12-29T08:05:11;33.30;;;4.43;;
32186;SDS011;18686;53.084;8.872;2023-12-29T08:07:42;30.55;;;4.45;;
32186;SDS011;18686;53.084;8.872;2023-12-29T08:10:12;32.45;;;4.35;;
32186;SDS011;18686;53.084;8.872;2023-12-29T08:12:40;23.75;;;4.18;;
32186;SDS011;18686;53.084;8.872;2023-12-29T08:15:09;40.10;;;4.40;;
32186;SDS011;18686;53.084;8.872;2023-12-29T08:17:37;27.10;;;4.40;;
32186;SDS011;18686;53.084;8.872;2023-12-29T08:20:06;25.48;;;3.90;;
32186;SDS011;18686;53.084;8.872;2023-12-29T08:22:35;41.33;;;4.70;;
32186;SDS011;18686;53.084;8.872;2023-12-29T08:25:06;31.95;;;5.05;;
32186;SDS011;18686;53.084;8.872;2023-12-29T08:27:35;27.10;;;4.50;;
32186;SDS011;18686;53.084;8.872;2023-12-29T08:30:04;31.63;;;4.95;;
32186;SDS011;18686;53.084;8.872;2023-12-29T08:32:33;39.28;;;5.22;;
32186;SDS011;18686;53.084;8.872;2023-12-29T08:35:01;28.30;;;5.13;;
32186;SDS011;18686;53.084;8.872;2023-12-29T08:37:30;29.23;;;5.57;;
32186;SDS011;18686;53.084;8.872;2023-12-29T08:39:59;44.05;;;6.68;;
32186;SDS011;18686;53.084;8.872;2023-12-29T08:42:30;36.47;;;6.20;;
32186;SDS011;18686;53.084;8.872;2023-12-29T08:44:59;33.63;;;5.63;;
32186;SDS011;18686;53.084;8.872;2023-12-29T08:47:27;32.53;;;4.88;;
32186;SDS011;18686;53.084;8.872;2023-12-29T08:49:55;36.15;;;5.20;;
32186;SDS011;18686;53.084;8.872;2023-12-29T08:52:24;32.45;;;3.80;;
32186;SDS011;18686;53.084;8.872;2023-12-29T08:54:53;18.63;;;3.53;;
32186;SDS011;18686;53.084;8.872;2023-12-29T08:57:21;20.77;;;2.28;;
32186;SDS011;18686;53.084;8.872;2023-12-29T08:59:51;18.30;;;2.35;;
32186;SDS011;18686;53.084;8.872;2023-12-29T09:02:21;17.48;;;3.20;;
32186;SDS011;18686;53.084;8.872;2023-12-29T09:04:49;12.75;;;2.53;;
32186;SDS011;18686;53.084;8.872;2023-12-29T09:07:17;26.35;;;3.35;;
32186;SDS011;18686;53.084;8.872;2023-12-29T09:09:46;19.17;;;2.63;;
32186;SDS011;18686;53.084;8.872;2023-12-29T09:12:14;19.02;;;3.15;;
32186;SDS011;18686;53.084;8.872;2023-12-29T09:14:42;23.42;;;3.55;;
32186;SDS011;18686;53.084;8.872;2023-12-29T09:17:12;18.77;;;3.38;;
32186;SDS011;18686;53.084;8.872;2023-12-29T09:19:40;24.75;;;3.58;;
32186;SDS011;18686;53.084;8.872;2023-12-29T09:22:12;25.08;;;3.65;;
32186;SDS011;18686;53.084;8.872;2023-12-29T09:24:41;20.55;;;4.28;;
32186;SDS011;18686;53.084;8.872;2023-12-29T09:27:09;19.58;;;3.88;;
32186;SDS011;18686;53.084;8.872;2023-12-29T09:29:40;19.02;;;3.95;;
32186;SDS011;18686;53.084;8.872;2023-12-29T09:32:08;18.10;;;5.25;;
32186;SDS011;18686;53.084;8.872;2023-12-29T09:34:38;22.83;;;5.18;;
32186;SDS011;18686;53.084;8.872;2023-12-29T09:37:06;39.88;;;5.38;;
32186;SDS011;18686;53.084;8.872;2023-12-29T09:39:34;29.02;;;5.53;;
32186;SDS011;18686;53.084;8.872;2023-12-29T09:42:03;21.52;;;4.65;;
32186;SDS011;18686;53.084;8.872;2023-12-29T09:44:33;29.20;;;5.35;;
32186;SDS011;18686;53.084;8.872;2023-12-29T09:47:03;28.75;;;5.32;;
32186;SDS011;18686;53.084;8.872;2023-12-29T09:49:36;34.42;;;4.85;;
32186;SDS011;18686;53.084;8.872;2023-12-29T09:52:09;29.00;;;5.07;;
32186;SDS011;18686;53.084;8.872;2023-12-29T09:54:40;26.20;;;4.75;;
32186;SDS011;18686;53.084;8.872;2023-12-29T09:57:09;21.95;;;5.05;;
32186;SDS011;18686;53.084;8.872;2023-12-29T09:59:38;29.10;;;5.65;;
32186;SDS011;18686;53.084;8.872;2023-12-29T10:02:10;31.48;;;5.82;;
32186;SDS011;18686;53.084;8.872;2023-12-29T10:04:43;31.10;;;5.53;;
32186;SDS011;18686;53.084;8.872;2023-12-29T10:07:13;25.55;;;4.78;;
32186;SDS011;18686;53.084;8.872;2023-12-29T10:09:48;36.70;;;5.78;;
32186;SDS011;18686;53.084;8.872;2023-12-29T10:12:20;20.77;;;5.18;;
32186;SDS011;18686;53.084;8.872;2023-12-29T10:14:49;30.50;;;4.88;;
32186;SDS011;18686;53.084;8.872;2023-12-29T10:17:36;25.95;;;4.75;;
32186;SDS011;18686;53.084;8.872;2023-12-29T10:20:24;28.17;;;5.40;;
32186;SDS011;18686;53.084;8.872;2023-12-29T10:23:04;21.30;;;4.72;;
32186;SDS011;18686;53.084;8.872;2023-12-29T10:25:36;24.27;;;5.28;;
32186;SDS011;18686;53.084;8.872;2023-12-29T10:28:04;33.80;;;5.50;;
32186;SDS011;18686;53.084;8.872;2023-12-29T10:30:33;25.10;;;5.22;;
32186;SDS011;18686;53.084;8.872;2023-12-29T10:33:02;22.95;;;4.50;;
32186;SDS011;18686;53.084;8.872;2023-12-29T10:35:35;18.67;;;3.10;;
32186;SDS011;18686;53.084;8.872;2023-12-29T10:38:09;20.70;;;3.88;;
32186;SDS011;18686;53.084;8.872;2023-12-29T10:40:38;14.35;;;3.45;;
32186;SDS011;18686;53.084;8.872;2023-12-29T10:43:07;14.55;;;2.30;;
32186;SDS011;18686;53.084;8.872;2023-12-29T10:45:36;20.00;;;2.67;;
32186;SDS011;18686;53.084;8.872;2023-12-29T10:48:05;16.70;;;2.78;;
32186;SDS011;18686;53.084;8.872;2023-12-29T10:50:43;19.15;;;2.80;;
32186;SDS011;18686;53.084;8.872;2023-12-29T10:53:12;11.55;;;2.47;;
32186;SDS011;18686;53.084;8.872;2023-12-29T10:55:43;21.92;;;3.78;;
32186;SDS011;18686;53.084;8.872;2023-12-29T10:58:12;16.67;;;3.40;;
32186;SDS011;18686;53.084;8.872;2023-12-29T11:00:43;19.25;;;3.40;;
32186;SDS011;18686;53.084;8.872;2023-12-29T11:03:12;21.55;;;3.70;;
32186;SDS011;18686;53.084;8.872;2023-12-29T11:05:44;16.55;;;3.30;;
32186;SDS011;18686;53.084;8.872;2023-12-29T11:08:16;24.70;;;4.68;;
32186;SDS011;18686;53.084;8.872;2023-12-29T11:10:46;19.05;;;4.00;;
32186;SDS011;18686;53.084;8.872;2023-12-29T11:13:16;20.00;;;4.43;;
32186;SDS011;18686;53.084;8.872;2023-12-29T11:15:47;27.27;;;5.28;;
32186;SDS011;18686;53.084;8.872;2023-12-29T11:18:16;24.85;;;5.03;;
32186;SDS011;18686;53.084;8.872;2023-12-29T11:20:47;18.75;;;4.70;;
32186;SDS011;18686;53.084;8.872;2023-12-29T11:23:15;25.88;;;5.57;;
32186;SDS011;18686;53.084;8.872;2023-12-29T11:25:44;26.27;;;6.60;;
32186;SDS011;18686;53.084;8.872;2023-12-29T11:28:13;28.00;;;7.68;;
32186;SDS011;18686;53.084;8.872;2023-12-29T11:30:42;26.15;;;8.77;;
32186;SDS011;18686;53.084;8.872;2023-12-29T11:33:12;39.97;;;9.23;;
32186;SDS011;18686;53.084;8.872;2023-12-29T11:35:50;41.72;;;9.32;;
32186;SDS011;18686;53.084;8.872;2023-12-29T11:38:24;35.53;;;8.82;;
32186;SDS011;18686;53.084;8.872;2023-12-29T11:41:02;29.17;;;7.75;;
32186;SDS011;18686;53.084;8.872;2023-12-29T11:43:35;27.40;;;8.20;;
32186;SDS011;18686;53.084;8.872;2023-12-29T11:46:04;36.78;;;8.95;;
32186;SDS011;18686;53.084;8.872;2023-12-29T11:48:54;25.90;;;6.93;;
32186;SDS011;18686;53.084;8.872;2023-12-29T11:51:28;28.98;;;6.57;;
32186;SDS011;18686;53.084;8.872;2023-12-29T11:53:57;22.48;;;5.30;;
32186;SDS011;18686;53.084;8.872;2023-12-29T11:56:33;23.30;;;5.28;;
32186;SDS011;18686;53.084;8.872;2023-12-29T11:59:12;17.67;;;4.18;;
32186;SDS011;18686;53.084;8.872;2023-12-29T12:01:49;19.58;;;4.60;;
32186;SDS011;18686;53.084;8.872;2023-12-29T12:04:34;19.65;;;3.83;;
32186;SDS011;18686;53.084;8.872;2023-12-29T12:07:13;17.38;;;3.40;;
32186;SDS011;18686;53.084;8.872;2023-12-29T12:09:43;18.25;;;3.42;;
32186;SDS011;18686;53.084;8.872;2023-12-29T12:12:38;11.68;;;2.80;;
32186;SDS011;18686;53.084;8.872;2023-12-29T12:15:09;8.48;;;2.28;;
32186;SDS011;18686;53.084;8.872;2023-12-29T12:18:02;13.65;;;2.60;;
32186;SDS011;18686;53.084;8.872;2023-12-29T12:20:35;11.25;;;1.90;;
32186;SDS011;18686;53.084;8.872;2023-12-29T12:23:07;11.07;;;2.17;;
32186;SDS011;18686;53.084;8.872;2023-12-29T12:25:40;15.02;;;2.25;;
32186;SDS011;18686;53.084;8.872;2023-12-29T12:28:09;10.07;;;2.33;;
32186;SDS011;18686;53.084;8.872;2023-12-29T12:30:37;14.15;;;2.55;;
32186;SDS011;18686;53.084;8.872;2023-12-29T12:33:06;11.48;;;2.25;;
32186;SDS011;18686;53.084;8.872;2023-12-29T12:35:38;15.60;;;2.70;;
32186;SDS011;18686;53.084;8.872;2023-12-29T12:38:08;13.35;;;1.60;;
32186;SDS011;18686;53.084;8.872;2023-12-29T12:40:38;12.30;;;1.52;;
32186;SDS011;18686;53.084;8.872;2023-12-29T12:43:06;13.15;;;1.38;;
32186;SDS011;18686;53.084;8.872;2023-12-29T12:45:40;9.73;;;1.55;;
32186;SDS011;18686;53.084;8.872;2023-12-29T12:48:12;7.53;;;1.25;;
32186;SDS011;18686;53.084;8.872;2023-12-29T12:50:47;9.63;;;1.40;;
32186;SDS011;18686;53.084;8.872;2023-12-29T12:53:18;9.80;;;1.20;;
32186;SDS011;18686;53.084;8.872;2023-12-29T12:55:48;15.82;;;2.10;;
32186;SDS011;18686;53.084;8.872;2023-12-29T12:58:17;12.18;;;1.98;;
32186;SDS011;18686;53.084;8.872;2023-12-29T13:00:47;13.98;;;1.90;;
32186;SDS011;18686;53.084;8.872;2023-12-29T13:03:20;14.48;;;1.50;;
32186;SDS011;18686;53.084;8.872;2023-12-29T13:05:49;20.63;;;2.00;;
32186;SDS011;18686;53.084;8.872;2023-12-29T13:08:19;14.45;;;1.75;;
32186;SDS011;18686;53.084;8.872;2023-12-29T13:11:00;10.57;;;2.05;;
32186;SDS011;18686;53.084;8.872;2023-12-29T13:13:36;11.93;;;2.03;;
32186;SDS011;18686;53.084;8.872;2023-12-29T13:16:05;17.80;;;1.83;;
32186;SDS011;18686;53.084;8.872;2023-12-29T13:18:34;16.45;;;2.05;;
32186;SDS011;18686;53.084;8.872;2023-12-29T13:21:05;13.60;;;1.40;;
32186;SDS011;18686;53.084;8.872;2023-12-29T13:23:36;14.85;;;2.00;;
32186;SDS011;18686;53.084;8.872;2023-12-29T13:26:04;9.90;;;2.05;;
32186;SDS011;18686;53.084;8.872;2023-12-29T13:28:35;13.73;;;1.90;;
32186;SDS011;18686;53.084;8.872;2023-12-29T13:31:07;12.13;;;2.17;;
32186;SDS011;18686;53.084;8.872;2023-12-29T13:33:41;7.70;;;1.77;;
32186;SDS011;18686;53.084;8.872;2023-12-29T13:36:22;11.18;;;2.88;;
32186;SDS011;18686;53.084;8.872;2023-12-29T13:38:57;8.05;;;1.40;;
32186;SDS011;18686;53.084;8.872;2023-12-29T13:41:36;5.72;;;1.17;;
32186;SDS011;18686;53.084;8.872;2023-12-29T13:44:04;6.50;;;1.10;;
32186;SDS011;18686;53.084;8.872;2023-12-29T13:46:33;8.10;;;1.55;;
32186;SDS011;18686;53.084;8.872;2023-12-29T13:49:03;8.48;;;1.60;;
32186;SDS011;18686;53.084;8.872;2023-12-29T13:51:33;9.80;;;1.48;;
32186;SDS011;18686;53.084;8.872;2023-12-29T13:54:03;7.05;;;1.30;;
32186;SDS011;18686;53.084;8.872;2023-12-29T13:56:31;10.35;;;1.55;;
32186;SDS011;18686;53.084;8.872;2023-12-29T13:59:00;7.93;;;1.60;;
32186;SDS011;18686;53.084;8.872;2023-12-29T14:01:34;9.80;;;2.28;;
32186;SDS011;18686;53.084;8.872;2023-12-29T14:04:06;11.10;;;1.77;;
32186;SDS011;18686;53.084;8.872;2023-12-29T14:06:40;7.97;;;1.77;;
32186;SDS011;18686;53.084;8.872;2023-12-29T14:09:18;10.82;;;1.85;;
32186;SDS011;18686;53.084;8.872;2023-12-29T14:11:47;11.02;;;2.28;;
32186;SDS011;18686;53.084;8.872;2023-12-29T14:14:21;14.80;;;2.53;;
32186;SDS011;18686;53.084;8.872;2023-12-29T14:16:51;11.15;;;2.10;;
32186;SDS011;18686;53.084;8.872;2023-12-29T14:19:20;18.42;;;3.05;;
32186;SDS011;18686;53.084;8.872;2023-12-29T14:21:49;13.73;;;2.58;;
32186;SDS011;18686;53.084;8.872;2023-12-29T14:24:21;12.75;;;2.67;;
32186;SDS011;18686;53.084;8.872;2023-12-29T14:26:53;16.50;;;3.95;;
32186;SDS011;18686;53.084;8.872;2023-12-29T14:29:25;19.85;;;3.85;;
32186;SDS011;18686;53.084;8.872;2023-12-29T14:31:54;17.25;;;3.47;;
32186;SDS011;18686;53.084;8.872;2023-12-29T14:34:23;16.90;;;3.40;;
32186;SDS011;18686;53.084;8.872;2023-12-29T14:36:53;14.35;;;3.13;;
32186;SDS011;18686;53.084;8.872;2023-12-29T14:39:23;11.63;;;2.90;;
32186;SDS011;18686;53.084;8.872;2023-12-29T14:41:53;21.60;;;3.45;;
32186;SDS011;18686;53.084;8.872;2023-12-29T14:44:21;21.33;;;3.95;;
32186;SDS011;18686;53.084;8.872;2023-12-29T14:46:50;16.92;;;3.17;;
32186;SDS011;18686;53.084;8.872;2023-12-29T14:49:19;15.95;;;3.45;;
32186;SDS011;18686;53.084;8.872;2023-12-29T14:51:47;21.48;;;3.45;;